createdAt,value
2022-10-16T00:02:16.438Z,15.10
2022-10-16T00:07:19.274Z,15.10
2022-10-16T00:12:22.228Z,15.10
2022-10-16T00:17:25.070Z,15.10
2022-10-16T00:22:28.139Z,15.10
2022-10-16T00:27:31.227Z,15.00
2022-10-16T00:32:34.200Z,15.00
2022-10-16T00:37:37.027Z,15.00
2022-10-16T00:42:40.115Z,15.00
2022-10-16T00:47:50.130Z,15.00
2022-10-16T00:52:53.343Z,15.00
2022-10-16T00:57:56.982Z,14.90
2022-10-16T01:03:01.365Z,14.90
2022-10-16T01:08:15.239Z,14.80
2022-10-16T01:13:26.007Z,14.70
2022-10-16T01:18:35.029Z,14.60
2022-10-16T01:24:02.690Z,14.50
2022-10-16T01:29:20.167Z,14.40
2022-10-16T01:34:34.640Z,14.30
2022-10-16T01:39:40.877Z,14.20
2022-10-16T01:44:44.736Z,14.10
2022-10-16T01:49:47.781Z,13.90
2022-10-16T01:54:51.975Z,13.80
2022-10-16T01:59:57.644Z,13.70
2022-10-16T02:05:12.219Z,13.60
2022-10-16T02:10:15.147Z,13.40
2022-10-16T02:15:17.871Z,13.30
2022-10-16T02:20:26.231Z,13.20
2022-10-16T02:25:33.389Z,13.20
2022-10-16T02:30:53.874Z,13.10
2022-10-16T02:35:58.180Z,13.00
2022-10-16T02:41:01.402Z,12.80
2022-10-16T02:46:04.325Z,12.70
2022-10-16T02:51:07.429Z,12.60
2022-10-16T02:56:10.326Z,12.60
2022-10-16T03:01:13.829Z,12.50
2022-10-16T03:06:16.497Z,12.40
2022-10-16T03:11:19.302Z,12.40
2022-10-16T03:16:22.141Z,12.30
2022-10-16T03:21:25.871Z,12.20
2022-10-16T03:26:28.698Z,12.10
2022-10-16T03:31:31.791Z,12.00
2022-10-16T03:36:34.783Z,11.90
2022-10-16T03:41:38.134Z,11.80
2022-10-16T03:46:40.973Z,11.80
2022-10-16T03:51:43.821Z,11.70
2022-10-16T03:56:46.686Z,11.60
2022-10-16T04:01:49.473Z,11.60
2022-10-16T04:06:52.523Z,11.40
2022-10-16T04:11:55.354Z,11.40
2022-10-16T04:16:58.067Z,11.30
2022-10-16T04:22:00.833Z,11.20
2022-10-16T04:27:03.917Z,11.20
2022-10-16T04:32:06.770Z,11.20
2022-10-16T04:37:09.341Z,11.10
2022-10-16T04:42:12.479Z,11.10
2022-10-16T04:47:15.314Z,11.00
2022-10-16T04:52:19.869Z,11.00
2022-10-16T04:57:22.556Z,10.90
2022-10-16T05:02:25.783Z,10.80
2022-10-16T05:07:28.945Z,10.80
2022-10-16T05:12:32.049Z,10.70
2022-10-16T05:17:34.923Z,10.70
2022-10-16T05:22:37.757Z,10.60
2022-10-16T05:27:40.337Z,10.60
2022-10-16T05:32:43.221Z,10.60
2022-10-16T05:37:47.795Z,10.60
2022-10-16T05:42:55.330Z,10.60
2022-10-16T05:47:58.098Z,10.60
2022-10-16T05:53:01.000Z,10.70
2022-10-16T05:58:03.856Z,10.70
2022-10-16T06:03:07.932Z,10.80
2022-10-16T06:08:10.789Z,10.90
2022-10-16T06:13:14.649Z,11.00
2022-10-16T06:18:17.495Z,11.20
2022-10-16T06:23:20.380Z,11.40
2022-10-16T06:28:23.355Z,11.60
2022-10-16T06:33:26.359Z,11.80
2022-10-16T06:38:29.253Z,12.00
2022-10-16T06:43:33.201Z,12.20
2022-10-16T06:48:36.095Z,12.50
2022-10-16T06:53:54.867Z,12.70
2022-10-16T06:59:04.387Z,13.00
2022-10-16T07:04:07.167Z,13.20
2022-10-16T07:09:11.585Z,13.50
2022-10-16T07:14:19.134Z,13.60
2022-10-16T07:19:22.307Z,13.80
2022-10-16T07:24:25.895Z,14.10
2022-10-16T07:29:28.746Z,14.40
2022-10-16T07:34:31.500Z,14.60
2022-10-16T07:39:34.815Z,14.90
2022-10-16T07:44:38.220Z,15.00
2022-10-16T07:49:41.029Z,15.10
2022-10-16T07:54:43.879Z,15.20
2022-10-16T07:59:47.415Z,15.30
2022-10-16T08:04:51.310Z,15.40
2022-10-16T08:09:54.130Z,15.60
2022-10-16T08:14:56.842Z,15.80
2022-10-16T08:19:59.682Z,16.00
2022-10-16T08:25:02.634Z,16.10
2022-10-16T08:30:05.810Z,16.20
2022-10-16T08:35:10.793Z,16.30
2022-10-16T08:40:28.964Z,16.30
2022-10-16T08:45:50.206Z,16.50
2022-10-16T08:50:53.934Z,16.60
2022-10-16T08:55:57.060Z,16.80
2022-10-16T09:01:21.564Z,16.90
2022-10-16T09:06:30.385Z,17.00
2022-10-16T09:11:54.910Z,17.10
2022-10-16T09:17:04.681Z,17.30
2022-10-16T09:22:18.038Z,17.40
2022-10-16T09:27:21.001Z,17.60
2022-10-16T09:32:24.215Z,17.80
2022-10-16T09:37:27.798Z,18.00
2022-10-16T09:42:37.803Z,18.20
2022-10-16T09:47:43.580Z,18.40
2022-10-16T09:52:46.330Z,18.70
2022-10-16T09:57:53.139Z,19.00
2022-10-16T10:02:56.355Z,19.20
2022-10-16T10:08:01.402Z,19.50
2022-10-16T10:13:04.379Z,19.70
2022-10-16T10:18:18.746Z,19.80
2022-10-16T10:23:23.837Z,20.00
2022-10-16T10:28:54.957Z,20.20
2022-10-16T10:34:19.478Z,20.50
2022-10-16T10:39:29.022Z,20.80
2022-10-16T10:44:43.804Z,21.20
2022-10-16T10:50:07.433Z,21.80
2022-10-16T10:55:21.459Z,22.40
2022-10-16T11:00:45.478Z,23.30
2022-10-16T11:05:57.666Z,24.10
2022-10-16T11:11:32.349Z,25.10
2022-10-16T11:16:47.943Z,25.90
2022-10-16T11:22:07.580Z,26.60
2022-10-16T11:27:16.340Z,27.00
2022-10-16T11:32:26.319Z,27.10
2022-10-16T11:37:33.425Z,27.30
2022-10-16T11:42:45.559Z,27.10
2022-10-16T11:48:10.121Z,26.70
2022-10-16T11:53:24.622Z,26.40
2022-10-16T11:58:53.229Z,25.60
2022-10-16T12:04:14.730Z,24.60
2022-10-16T12:09:31.818Z,23.90
2022-10-16T12:14:42.980Z,23.20
2022-10-16T12:20:00.939Z,22.70
2022-10-16T12:25:04.126Z,22.30
2022-10-16T12:30:07.542Z,22.10
2022-10-16T12:35:25.059Z,21.80
2022-10-16T12:40:27.666Z,21.60
2022-10-16T12:45:34.957Z,21.50
2022-10-16T12:50:40.350Z,21.40
2022-10-16T12:55:51.231Z,21.30
2022-10-16T13:01:19.367Z,21.20
2022-10-16T13:06:48.639Z,21.10
2022-10-16T13:12:06.658Z,21.10
2022-10-16T13:17:28.101Z,21.10
2022-10-16T13:22:42.663Z,21.10
2022-10-16T13:28:07.674Z,21.00
2022-10-16T13:33:22.157Z,21.00
2022-10-16T13:38:33.092Z,21.00
2022-10-16T13:43:57.609Z,21.00
2022-10-16T13:49:04.125Z,21.00
2022-10-16T13:54:12.566Z,20.90
2022-10-16T13:59:27.886Z,20.90
2022-10-16T14:04:33.345Z,20.90
2022-10-16T14:09:37.584Z,20.90
2022-10-16T14:14:43.642Z,20.90
2022-10-16T14:19:54.751Z,20.90
2022-10-16T14:25:02.194Z,20.90
2022-10-16T14:30:25.353Z,20.90
2022-10-16T14:35:28.049Z,20.90
2022-10-16T14:40:33.564Z,20.90
2022-10-16T14:45:36.875Z,20.90
2022-10-16T14:50:40.000Z,20.90
2022-10-16T14:55:43.408Z,20.80
2022-10-16T15:00:46.854Z,20.80
2022-10-16T15:05:49.598Z,20.70
2022-10-16T15:10:52.620Z,20.70
2022-10-16T15:15:55.591Z,20.50
2022-10-16T15:20:58.269Z,20.30
2022-10-16T15:26:01.271Z,20.00
2022-10-16T15:31:05.465Z,19.80
2022-10-16T15:36:08.903Z,19.50
2022-10-16T15:41:12.769Z,19.20
2022-10-16T15:46:16.329Z,19.00
2022-10-16T15:51:20.095Z,18.70
2022-10-16T15:56:23.420Z,18.50
2022-10-16T16:01:27.118Z,18.20
2022-10-16T16:06:30.566Z,18.00
2022-10-16T16:11:38.601Z,17.70
2022-10-16T16:16:42.435Z,17.40
2022-10-16T16:21:45.496Z,17.20
2022-10-16T16:26:48.361Z,16.90
2022-10-16T16:31:51.226Z,16.60
2022-10-16T16:36:54.990Z,16.50
2022-10-16T16:41:59.566Z,16.30
2022-10-16T16:47:03.093Z,16.10
2022-10-16T16:52:05.718Z,15.90
2022-10-16T16:57:08.653Z,15.80
2022-10-16T17:02:11.402Z,15.60
2022-10-16T17:07:14.389Z,15.50
2022-10-16T17:12:17.504Z,15.40
2022-10-16T17:17:20.345Z,15.20
2022-10-16T17:22:23.010Z,15.10
2022-10-16T17:27:25.965Z,15.00
2022-10-16T17:32:28.939Z,14.90
2022-10-16T17:37:33.531Z,14.80
2022-10-16T17:42:36.933Z,14.70
2022-10-16T17:47:41.877Z,14.70
2022-10-16T17:52:45.181Z,14.60
2022-10-16T17:57:48.147Z,14.50
2022-10-16T18:02:51.078Z,14.50
2022-10-16T18:07:58.379Z,14.40
2022-10-16T18:13:01.875Z,14.30
2022-10-16T18:18:04.938Z,14.20
2022-10-16T18:23:07.567Z,14.10
2022-10-16T18:28:10.421Z,14.00
2022-10-16T18:33:15.604Z,14.00
2022-10-16T18:38:18.640Z,13.90
2022-10-16T18:43:21.530Z,13.80
2022-10-16T18:48:25.245Z,13.80
2022-10-16T18:58:31.977Z,13.60
2022-10-16T19:03:35.344Z,13.60
2022-10-16T19:08:39.021Z,13.50
2022-10-16T19:13:43.042Z,13.50
2022-10-16T19:18:46.429Z,13.40
2022-10-16T19:23:53.496Z,13.30
2022-10-16T19:28:58.878Z,13.20
2022-10-16T19:34:03.479Z,13.20
2022-10-16T19:39:17.640Z,13.00
2022-10-16T19:44:20.467Z,13.00
2022-10-16T19:49:23.179Z,13.00
2022-10-16T19:54:27.384Z,12.90
2022-10-16T19:59:30.441Z,12.80
2022-10-16T20:04:33.240Z,12.80
2022-10-16T20:09:36.255Z,12.70
2022-10-16T20:14:39.050Z,12.60
2022-10-16T20:19:41.871Z,12.60
2022-10-16T20:24:44.734Z,12.50
2022-10-16T20:29:47.339Z,12.50
2022-10-16T20:34:50.426Z,12.40
2022-10-16T20:39:53.226Z,12.40
2022-10-16T20:44:55.969Z,12.40
2022-10-16T20:49:58.553Z,12.30
2022-10-16T20:55:01.440Z,12.30
2022-10-16T21:00:08.236Z,12.30
2022-10-16T21:05:11.100Z,12.40
2022-10-16T21:10:14.114Z,12.40
2022-10-16T21:15:16.917Z,12.40
2022-10-16T21:20:19.700Z,12.40
2022-10-16T21:25:22.488Z,12.40
2022-10-16T21:30:25.683Z,12.40
2022-10-16T21:35:30.612Z,12.40
2022-10-16T21:40:34.045Z,12.40
2022-10-16T21:45:36.706Z,12.40
2022-10-16T21:50:39.311Z,12.20
2022-10-16T21:55:42.660Z,12.10
2022-10-16T22:00:45.422Z,12.10
2022-10-16T22:05:48.455Z,12.00
2022-10-16T22:10:51.225Z,11.90
2022-10-16T22:15:56.060Z,11.80
2022-10-16T22:20:59.172Z,11.80
2022-10-16T22:26:04.604Z,11.80
2022-10-16T22:31:14.875Z,11.70
2022-10-16T22:36:17.747Z,11.70
2022-10-16T22:41:21.373Z,11.70
2022-10-16T22:46:26.660Z,11.70
2022-10-16T22:51:29.564Z,11.60
2022-10-16T22:56:32.370Z,11.60
2022-10-16T23:01:40.905Z,11.60
2022-10-16T23:06:43.724Z,11.50
2022-10-16T23:11:46.575Z,11.40
2022-10-16T23:16:49.965Z,11.30
2022-10-16T23:21:52.788Z,11.30
2022-10-16T23:26:55.526Z,11.20
2022-10-16T23:31:58.519Z,11.20
2022-10-16T23:37:03.801Z,11.20
2022-10-16T23:42:06.617Z,11.20
2022-10-16T23:47:09.256Z,11.20
2022-10-16T23:52:11.974Z,11.20
2022-10-16T23:57:15.387Z,11.20
